createdAt,value
2023-07-24T00:02:01.706Z,87.16
2023-07-24T00:05:05.189Z,89.69
2023-07-24T00:08:09.437Z,90.08
2023-07-24T00:11:11.985Z,89.72
2023-07-24T00:14:22.879Z,89.31
2023-07-24T00:17:26.044Z,88.71
2023-07-24T00:20:28.930Z,89.18
2023-07-24T00:23:36.158Z,89.54
2023-07-24T00:26:39.274Z,89.44
2023-07-24T00:29:45.058Z,89.43
2023-07-24T00:32:49.141Z,89.84
2023-07-24T00:35:56.782Z,88.94
2023-07-24T00:38:59.319Z,87.35
2023-07-24T00:42:02.891Z,87.58
2023-07-24T00:45:05.992Z,87.05
2023-07-24T00:48:08.790Z,87.27
2023-07-24T00:51:14.608Z,87.91
2023-07-24T00:54:18.639Z,87.34
2023-07-24T00:57:21.435Z,89.12
2023-07-24T01:00:27.784Z,88.96
2023-07-24T01:03:36.944Z,88.87
2023-07-24T01:06:40.063Z,87.84
2023-07-24T01:09:42.564Z,89.79
2023-07-24T01:13:01.388Z,88.92
2023-07-24T01:16:14.106Z,89.00
2023-07-24T01:19:48.939Z,87.74
2023-07-24T01:23:32.951Z,89.79
2023-07-24T01:26:35.730Z,90.17
2023-07-24T01:29:38.146Z,90.66
2023-07-24T01:32:41.008Z,90.16
2023-07-24T01:35:45.394Z,90.20
2023-07-24T01:38:51.406Z,90.15
2023-07-24T01:41:54.510Z,89.83
2023-07-24T01:44:57.317Z,89.95
2023-07-24T01:48:00.658Z,90.35
2023-07-24T01:51:04.607Z,90.52
2023-07-24T01:54:10.005Z,91.11
2023-07-24T01:57:12.531Z,91.61
2023-07-24T02:00:17.046Z,91.48
2023-07-24T02:03:19.650Z,92.52
2023-07-24T02:06:23.191Z,91.75
2023-07-24T02:09:25.795Z,92.28
2023-07-24T02:12:28.264Z,93.79
2023-07-24T02:15:31.316Z,94.09
2023-07-24T02:18:33.759Z,94.11
2023-07-24T02:21:36.155Z,94.25
2023-07-24T02:24:38.617Z,94.60
2023-07-24T02:27:41.094Z,95.13
2023-07-24T02:30:43.497Z,94.86
2023-07-24T02:33:46.044Z,94.61
2023-07-24T02:36:50.334Z,95.38
2023-07-24T02:39:54.469Z,94.63
2023-07-24T02:42:56.850Z,94.66
2023-07-24T02:46:05.373Z,95.49
2023-07-24T02:49:09.073Z,95.79
2023-07-24T02:52:12.053Z,95.72
2023-07-24T02:55:15.053Z,95.56
2023-07-24T02:58:17.934Z,96.67
2023-07-24T03:01:20.473Z,96.68
2023-07-24T03:04:22.980Z,95.61
2023-07-24T03:07:26.307Z,94.95
2023-07-24T03:10:28.848Z,94.13
2023-07-24T03:13:31.598Z,94.13
2023-07-24T03:16:34.152Z,93.05
2023-07-24T03:19:36.533Z,92.99
2023-07-24T03:22:38.901Z,93.58
2023-07-24T03:25:43.642Z,92.80
2023-07-24T03:28:46.623Z,92.02
2023-07-24T03:31:49.510Z,91.81
2023-07-24T03:34:52.191Z,91.39
2023-07-24T03:37:54.666Z,90.74
2023-07-24T03:40:57.022Z,90.85
2023-07-24T03:43:59.644Z,90.84
2023-07-24T03:47:02.485Z,90.08
2023-07-24T03:50:05.410Z,89.72
2023-07-24T03:53:07.789Z,89.61
2023-07-24T03:56:13.078Z,89.65
2023-07-24T03:59:16.297Z,89.17
2023-07-24T04:02:20.145Z,90.21
2023-07-24T04:05:22.601Z,90.41
2023-07-24T04:08:25.611Z,89.77
2023-07-24T04:11:28.081Z,89.93
2023-07-24T04:14:30.770Z,89.06
2023-07-24T04:17:35.291Z,88.08
2023-07-24T04:20:38.506Z,87.60
2023-07-24T04:23:44.418Z,87.91
2023-07-24T04:26:47.577Z,86.46
2023-07-24T04:29:50.035Z,86.33
2023-07-24T04:32:52.453Z,84.19
2023-07-24T04:35:57.716Z,84.01
2023-07-24T04:39:00.103Z,85.29
2023-07-24T04:42:02.546Z,84.31
2023-07-24T04:45:05.346Z,83.19
2023-07-24T04:48:07.788Z,84.82
2023-07-24T04:51:10.788Z,81.99
2023-07-24T04:54:13.304Z,81.99
2023-07-24T04:57:15.724Z,80.33
2023-07-24T05:00:18.099Z,81.62
2023-07-24T05:03:21.207Z,81.11
2023-07-24T05:06:26.286Z,81.87
2023-07-24T05:09:28.678Z,82.50
2023-07-24T05:12:31.483Z,81.40
2023-07-24T05:15:33.990Z,82.78
2023-07-24T05:18:40.466Z,82.86
2023-07-24T05:21:49.529Z,82.96
2023-07-24T05:24:52.506Z,84.07
2023-07-24T05:27:54.888Z,83.71
2023-07-24T05:31:02.272Z,84.56
2023-07-24T05:34:04.879Z,83.32
2023-07-24T05:37:07.280Z,83.03
2023-07-24T05:40:10.322Z,83.77
2023-07-24T05:43:12.792Z,80.94
2023-07-24T05:46:15.250Z,81.35
2023-07-24T05:49:18.460Z,80.87
2023-07-24T05:52:21.117Z,80.21
2023-07-24T05:55:24.571Z,80.73
2023-07-24T05:58:27.626Z,80.18
2023-07-24T06:01:30.240Z,81.40
2023-07-24T06:04:32.841Z,80.37
2023-07-24T06:07:35.554Z,78.24
2023-07-24T06:10:38.747Z,76.11
2023-07-24T06:13:41.178Z,71.77
2023-07-24T06:16:43.615Z,69.00
2023-07-24T06:19:46.260Z,66.18
2023-07-24T06:22:48.779Z,64.49
2023-07-24T06:25:52.865Z,62.69
2023-07-24T06:28:55.267Z,62.89
2023-07-24T06:31:57.710Z,64.87
2023-07-24T06:35:00.096Z,63.50
2023-07-24T06:38:02.529Z,62.43
2023-07-24T06:41:05.202Z,59.35
2023-07-24T06:44:07.916Z,59.09
2023-07-24T06:47:12.169Z,56.42
2023-07-24T06:50:15.093Z,57.65
2023-07-24T06:53:18.029Z,57.49
2023-07-24T06:56:23.407Z,58.01
2023-07-24T06:59:25.968Z,53.80
2023-07-24T07:02:34.076Z,53.98
2023-07-24T07:05:37.418Z,53.42
2023-07-24T07:08:41.390Z,53.58
2023-07-24T07:11:44.537Z,51.56
2023-07-24T07:14:47.272Z,51.97
2023-07-24T07:17:50.525Z,51.77
2023-07-24T07:20:54.876Z,50.45
2023-07-24T07:23:57.552Z,49.95
2023-07-24T07:27:01.108Z,48.75
2023-07-24T07:30:06.074Z,47.62
2023-07-24T07:33:08.855Z,46.91
2023-07-24T07:36:12.374Z,45.70
2023-07-24T07:39:14.874Z,45.66
2023-07-24T07:42:18.720Z,45.16
2023-07-24T07:45:22.334Z,43.98
2023-07-24T07:48:26.822Z,44.42
2023-07-24T07:51:34.718Z,42.02
2023-07-24T07:54:37.227Z,41.96
2023-07-24T07:57:39.870Z,42.04
2023-07-24T08:00:42.484Z,44.38
2023-07-24T08:03:45.168Z,42.76
2023-07-24T08:06:48.582Z,43.41
2023-07-24T08:10:00.407Z,40.97
2023-07-24T08:13:02.757Z,41.17
2023-07-24T08:16:05.412Z,41.28
2023-07-24T08:19:08.022Z,42.43
2023-07-24T08:22:11.442Z,41.11
2023-07-24T08:25:15.480Z,44.13
2023-07-24T08:28:19.446Z,43.97
2023-07-24T08:31:23.200Z,41.97
2023-07-24T08:34:26.355Z,43.72
2023-07-24T08:37:29.070Z,43.85
2023-07-24T08:40:33.054Z,42.95
2023-07-24T08:43:37.555Z,43.22
2023-07-24T08:46:42.554Z,43.85
2023-07-24T08:49:48.281Z,46.17
2023-07-24T08:52:50.806Z,45.98
2023-07-24T08:55:55.833Z,44.82
2023-07-24T08:58:58.412Z,44.15
2023-07-24T09:02:00.877Z,45.00
2023-07-24T09:05:04.663Z,44.32
2023-07-24T09:08:08.512Z,42.89
2023-07-24T09:11:15.073Z,44.38
2023-07-24T09:14:32.302Z,45.71
2023-07-24T09:17:35.364Z,43.58
2023-07-24T09:20:43.462Z,44.07
2023-07-24T09:23:46.484Z,43.41
2023-07-24T09:26:58.491Z,44.78
2023-07-24T09:30:02.815Z,41.59
2023-07-24T09:33:06.165Z,44.54
2023-07-24T09:36:10.406Z,42.54
2023-07-24T09:39:13.088Z,43.98
2023-07-24T09:42:17.666Z,43.57
2023-07-24T09:45:23.422Z,40.87
2023-07-24T09:51:33.667Z,42.10
2023-07-24T09:54:47.261Z,43.10
2023-07-24T09:57:54.137Z,44.09
2023-07-24T10:00:58.038Z,46.19
2023-07-24T10:04:02.330Z,46.87
2023-07-24T10:07:08.247Z,45.83
2023-07-24T10:10:11.139Z,41.73
2023-07-24T10:13:16.025Z,43.14
2023-07-24T10:16:18.477Z,45.52
2023-07-24T10:19:22.051Z,43.55
2023-07-24T10:22:26.811Z,45.22
2023-07-24T10:25:37.403Z,41.19
2023-07-24T10:28:42.802Z,41.84
2023-07-24T10:31:54.383Z,43.27
2023-07-24T10:34:59.112Z,42.64
2023-07-24T10:38:03.871Z,39.19
2023-07-24T10:41:09.298Z,43.12
2023-07-24T10:44:12.429Z,41.71
2023-07-24T10:47:17.222Z,41.12
2023-07-24T10:50:19.847Z,40.44
2023-07-24T10:53:23.885Z,38.65
2023-07-24T10:56:26.812Z,37.71
2023-07-24T10:59:41.622Z,39.67
2023-07-24T11:02:44.249Z,40.76
2023-07-24T11:05:48.457Z,38.87
2023-07-24T11:08:58.286Z,38.85
2023-07-24T11:12:14.050Z,39.54
2023-07-24T11:15:17.480Z,38.56
2023-07-24T11:18:27.950Z,39.97
2023-07-24T11:21:37.580Z,39.34
2023-07-24T11:24:49.729Z,38.28
2023-07-24T11:27:52.546Z,40.32
2023-07-24T11:30:55.135Z,38.54
2023-07-24T11:33:57.753Z,38.06
2023-07-24T11:37:01.887Z,38.49
2023-07-24T11:40:09.963Z,37.23
2023-07-24T11:43:20.896Z,37.36
2023-07-24T11:46:26.697Z,38.61
2023-07-24T11:49:34.246Z,38.24
2023-07-24T11:52:44.750Z,38.40
2023-07-24T11:55:47.194Z,38.17
2023-07-24T11:58:50.002Z,38.76
2023-07-24T12:01:53.015Z,39.79
2023-07-24T12:05:02.214Z,39.64
2023-07-24T12:08:05.338Z,39.60
2023-07-24T12:11:17.776Z,39.71
2023-07-24T12:14:20.557Z,39.16
2023-07-24T12:17:23.901Z,38.19
2023-07-24T12:20:26.602Z,36.43
2023-07-24T12:23:29.070Z,38.91
2023-07-24T12:26:35.474Z,38.12
2023-07-24T12:29:38.266Z,38.01
2023-07-24T12:32:40.942Z,39.51
2023-07-24T12:35:43.507Z,39.07
2023-07-24T12:38:49.768Z,39.91
2023-07-24T12:41:52.588Z,39.05
2023-07-24T12:44:58.988Z,37.97
2023-07-24T12:48:01.815Z,39.49
2023-07-24T12:51:04.480Z,38.32
2023-07-24T12:54:13.130Z,39.50
2023-07-24T12:57:30.576Z,38.76
2023-07-24T13:00:33.482Z,37.83
2023-07-24T13:03:39.574Z,37.44
2023-07-24T13:06:42.354Z,39.05
2023-07-24T13:09:45.745Z,38.29
2023-07-24T13:12:48.705Z,37.98
2023-07-24T13:15:52.022Z,37.44
2023-07-24T13:18:54.961Z,39.73
2023-07-24T13:21:58.892Z,40.90
2023-07-24T13:25:02.185Z,37.28
2023-07-24T13:28:04.941Z,39.88
2023-07-24T13:31:21.765Z,38.68
2023-07-24T13:34:25.671Z,38.16
2023-07-24T13:37:31.359Z,38.13
2023-07-24T13:40:34.308Z,38.07
2023-07-24T13:43:37.206Z,38.19
2023-07-24T13:46:41.282Z,36.91
2023-07-24T13:49:44.288Z,38.44
2023-07-24T13:52:47.260Z,39.50
2023-07-24T13:55:49.997Z,37.91
2023-07-24T13:58:52.626Z,39.25
2023-07-24T14:01:55.856Z,40.76
2023-07-24T14:04:58.305Z,40.16
2023-07-24T14:08:01.275Z,38.83
2023-07-24T14:11:04.147Z,37.78
2023-07-24T14:14:07.014Z,39.75
2023-07-24T14:17:09.544Z,40.91
2023-07-24T14:20:12.306Z,37.76
2023-07-24T14:23:14.782Z,40.12
2023-07-24T14:26:17.281Z,41.76
2023-07-24T14:29:20.133Z,39.99
2023-07-24T14:32:23.232Z,40.36
2023-07-24T14:35:26.664Z,40.63
2023-07-24T14:38:31.583Z,39.97
2023-07-24T14:41:34.037Z,41.69
2023-07-24T14:44:36.388Z,41.47
2023-07-24T14:47:38.931Z,40.96
2023-07-24T14:50:41.650Z,42.13
2023-07-24T14:53:44.019Z,41.84
2023-07-24T14:56:55.581Z,42.45
2023-07-24T15:00:03.361Z,41.94
2023-07-24T15:03:05.856Z,42.53
2023-07-24T15:06:08.906Z,41.31
2023-07-24T15:09:12.586Z,41.26
2023-07-24T15:12:15.157Z,41.61
2023-07-24T15:15:17.752Z,41.70
2023-07-24T15:18:23.360Z,41.48
2023-07-24T15:21:26.884Z,42.36
2023-07-24T15:24:29.545Z,42.96
2023-07-24T15:27:32.006Z,41.78
2023-07-24T15:30:34.743Z,42.05
2023-07-24T15:33:37.154Z,41.70
2023-07-24T15:36:39.916Z,41.99
2023-07-24T15:39:42.874Z,42.13
2023-07-24T15:42:47.572Z,42.06
2023-07-24T15:45:51.887Z,41.97
2023-07-24T15:48:54.504Z,42.52
2023-07-24T15:51:57.114Z,42.52
2023-07-24T15:55:01.700Z,43.00
2023-07-24T15:58:05.182Z,42.60
2023-07-24T16:01:08.830Z,43.05
2023-07-24T16:04:11.873Z,42.81
2023-07-24T16:07:14.756Z,41.35
2023-07-24T16:10:20.664Z,41.83
2023-07-24T16:13:29.139Z,42.22
2023-07-24T16:16:32.982Z,42.49
2023-07-24T16:19:35.575Z,42.51
2023-07-24T16:22:41.009Z,41.86
2023-07-24T16:25:43.474Z,41.94
2023-07-24T16:28:45.885Z,41.75
2023-07-24T16:31:48.498Z,42.11
2023-07-24T16:34:52.353Z,42.77
2023-07-24T16:37:56.683Z,43.12
2023-07-24T16:41:00.111Z,42.90
2023-07-24T16:44:03.506Z,43.07
2023-07-24T16:50:14.095Z,44.30
2023-07-24T16:53:19.358Z,45.33
2023-07-24T16:56:22.125Z,46.90
2023-07-24T16:59:25.327Z,47.62
2023-07-24T17:02:28.915Z,47.77
2023-07-24T17:05:31.861Z,48.49
2023-07-24T17:08:34.529Z,48.94
2023-07-24T17:11:40.782Z,48.94
2023-07-24T17:14:44.321Z,50.24
2023-07-24T17:17:47.594Z,50.40
2023-07-24T17:20:51.721Z,50.04
2023-07-24T17:23:54.273Z,51.09
2023-07-24T17:26:57.032Z,50.90
2023-07-24T17:30:00.741Z,51.21
2023-07-24T17:33:03.475Z,51.14
2023-07-24T17:36:08.462Z,51.29
2023-07-24T17:39:11.226Z,51.04
2023-07-24T17:42:16.801Z,51.19
2023-07-24T17:45:22.448Z,50.73
2023-07-24T17:48:25.224Z,51.54
2023-07-24T17:51:27.973Z,51.49
2023-07-24T17:54:31.455Z,51.80
2023-07-24T17:57:35.134Z,51.92
2023-07-24T18:00:41.734Z,52.04
2023-07-24T18:03:44.720Z,52.31
2023-07-24T18:06:48.388Z,52.79
2023-07-24T18:09:50.795Z,53.13
2023-07-24T18:12:57.455Z,53.50
2023-07-24T18:16:00.169Z,54.12
2023-07-24T18:19:08.016Z,54.02
2023-07-24T18:22:11.380Z,54.30
2023-07-24T18:25:13.807Z,54.41
2023-07-24T18:28:17.376Z,54.72
2023-07-24T18:31:21.024Z,54.35
2023-07-24T18:34:24.284Z,54.18
2023-07-24T18:37:27.218Z,54.30
2023-07-24T18:40:29.948Z,54.34
2023-07-24T18:43:32.383Z,54.91
2023-07-24T18:46:35.542Z,54.92
2023-07-24T18:49:38.723Z,55.46
2023-07-24T18:52:41.440Z,54.61
2023-07-24T18:55:45.847Z,54.81
2023-07-24T18:58:50.480Z,54.62
2023-07-24T19:01:53.241Z,54.73
2023-07-24T19:04:55.688Z,54.21
2023-07-24T19:08:01.398Z,54.99
2023-07-24T19:11:05.014Z,55.33
2023-07-24T19:14:07.870Z,55.83
2023-07-24T19:17:16.313Z,55.77
2023-07-24T19:20:22.290Z,55.99
2023-07-24T19:23:25.163Z,55.79
2023-07-24T19:26:30.366Z,55.98
2023-07-24T19:29:34.148Z,56.08
2023-07-24T19:32:40.452Z,56.28
2023-07-24T19:35:48.444Z,56.36
2023-07-24T19:38:53.019Z,56.74
2023-07-24T19:41:55.667Z,56.83
2023-07-24T19:45:00.517Z,57.29
2023-07-24T19:48:04.680Z,58.08
2023-07-24T19:51:08.124Z,58.43
2023-07-24T19:54:11.602Z,58.88
2023-07-24T19:57:14.094Z,58.82
2023-07-24T20:00:16.669Z,59.34
2023-07-24T20:03:19.869Z,60.30
2023-07-24T20:06:22.441Z,60.10
2023-07-24T20:09:24.881Z,60.41
2023-07-24T20:12:27.432Z,60.98
2023-07-24T20:15:29.793Z,62.31
2023-07-24T20:18:32.179Z,62.39
2023-07-24T20:21:34.853Z,62.52
2023-07-24T20:24:37.346Z,62.39
2023-07-24T20:27:40.514Z,62.43
2023-07-24T20:30:43.174Z,63.06
2023-07-24T20:33:46.243Z,63.11
2023-07-24T20:36:49.793Z,63.99
2023-07-24T20:39:52.988Z,63.30
2023-07-24T20:42:56.676Z,63.23
2023-07-24T20:46:10.632Z,64.78
2023-07-24T20:49:13.459Z,66.28
2023-07-24T20:52:16.320Z,65.17
2023-07-24T20:55:19.015Z,66.27
2023-07-24T20:58:21.388Z,65.88
2023-07-24T21:01:24.436Z,65.69
2023-07-24T21:04:27.221Z,66.21
2023-07-24T21:07:32.918Z,65.95
2023-07-24T21:10:35.475Z,66.71
2023-07-24T21:13:38.056Z,66.66
2023-07-24T21:16:40.449Z,67.02
2023-07-24T21:19:43.250Z,65.81
2023-07-24T21:22:46.285Z,66.34
2023-07-24T21:25:57.004Z,67.28
2023-07-24T21:28:59.722Z,68.25
2023-07-24T21:32:02.985Z,66.32
2023-07-24T21:35:06.461Z,66.57
2023-07-24T21:38:09.884Z,65.98
2023-07-24T21:41:14.158Z,66.99
2023-07-24T21:44:17.294Z,65.99
2023-07-24T21:47:20.498Z,69.16
2023-07-24T21:50:22.940Z,68.77
2023-07-24T21:53:26.342Z,67.59
2023-07-24T21:56:29.407Z,68.15
2023-07-24T21:59:32.038Z,68.11
2023-07-24T22:02:34.959Z,67.48
2023-07-24T22:05:43.548Z,69.29
2023-07-24T22:08:50.482Z,69.05
2023-07-24T22:11:52.994Z,67.76
2023-07-24T22:14:55.387Z,69.02
2023-07-24T22:17:58.320Z,69.98
2023-07-24T22:21:01.364Z,70.41
2023-07-24T22:24:04.384Z,71.42
2023-07-24T22:27:07.563Z,70.20
2023-07-24T22:30:10.991Z,70.04
2023-07-24T22:33:13.594Z,71.57
2023-07-24T22:36:16.014Z,73.06
2023-07-24T22:39:18.384Z,73.13
2023-07-24T22:42:21.783Z,73.65
2023-07-24T22:45:26.497Z,72.67
2023-07-24T22:48:29.204Z,73.68
2023-07-24T22:51:32.264Z,72.13
2023-07-24T22:54:35.037Z,71.55
2023-07-24T22:57:37.530Z,69.34
2023-07-24T23:00:40.533Z,69.93
2023-07-24T23:03:49.922Z,70.74
2023-07-24T23:06:55.732Z,71.82
2023-07-24T23:09:58.184Z,72.43
2023-07-24T23:13:01.235Z,71.77
2023-07-24T23:16:05.061Z,73.56
2023-07-24T23:19:07.592Z,73.01
2023-07-24T23:22:10.630Z,73.58
2023-07-24T23:25:13.435Z,73.66
2023-07-24T23:28:16.303Z,74.34
2023-07-24T23:31:19.866Z,74.44
2023-07-24T23:34:22.779Z,74.33
2023-07-24T23:37:25.188Z,76.71
2023-07-24T23:40:28.266Z,75.57
2023-07-24T23:43:31.768Z,77.75
2023-07-24T23:46:34.168Z,77.88
2023-07-24T23:49:36.697Z,78.23
2023-07-24T23:52:39.490Z,78.02
2023-07-24T23:55:43.058Z,77.85
2023-07-24T23:58:46.358Z,78.24
